createdAt,value
2023-04-29T00:00:10.311Z,100217.88
2023-04-29T00:04:14.718Z,100218.78
2023-04-29T00:08:16.336Z,100223.09
2023-04-29T00:12:17.916Z,100218.88
2023-04-29T00:16:19.570Z,100219.91
2023-04-29T00:20:21.160Z,100220.06
2023-04-29T00:24:22.684Z,100219.28
2023-04-29T00:28:24.210Z,100223.63
2023-04-29T00:32:25.746Z,100220.34
2023-04-29T00:36:28.390Z,100224.69
2023-04-29T00:40:29.977Z,100222.16
2023-04-29T00:44:31.626Z,100223.00
2023-04-29T00:48:33.543Z,100224.81
2023-04-29T00:52:35.889Z,100225.75
2023-04-29T00:56:39.403Z,100228.44
2023-04-29T01:00:41.675Z,100226.75
2023-04-29T01:04:43.699Z,100225.00
2023-04-29T01:09:16.463Z,100226.66
2023-04-29T01:13:38.724Z,100225.66
2023-04-29T01:17:51.637Z,100225.59
2023-04-29T01:21:54.188Z,100231.44
2023-04-29T01:25:57.063Z,100233.88
2023-04-29T01:30:45.376Z,100230.28
2023-04-29T01:34:59.724Z,100231.88
2023-04-29T01:39:12.012Z,100231.75
2023-04-29T01:43:15.763Z,100234.97
2023-04-29T01:47:21.690Z,100240.00
2023-04-29T01:51:29.750Z,100243.31
2023-04-29T01:55:31.699Z,100251.00
2023-04-29T01:59:54.827Z,100239.09
2023-04-29T02:04:15.330Z,100244.38
2023-04-29T02:08:19.737Z,100246.25
2023-04-29T02:12:22.317Z,100248.88
2023-04-29T02:16:24.194Z,100258.31
2023-04-29T02:20:31.306Z,100268.72
2023-04-29T02:24:32.909Z,100265.09
2023-04-29T02:28:35.117Z,100266.50
2023-04-29T02:32:37.096Z,100272.97
2023-04-29T02:36:39.377Z,100276.34
2023-04-29T02:40:43.188Z,100276.34
2023-04-29T02:44:44.779Z,100285.78
2023-04-29T02:48:46.436Z,100281.59
2023-04-29T02:52:49.343Z,100275.66
2023-04-29T02:56:51.004Z,100278.19
2023-04-29T03:00:52.575Z,100289.38
2023-04-29T03:04:54.140Z,100284.22
2023-04-29T03:08:56.879Z,100283.44
2023-04-29T03:12:58.583Z,100283.59
2023-04-29T03:17:00.324Z,100287.81
2023-04-29T03:21:04.695Z,100275.69
2023-04-29T03:25:07.080Z,100274.59
2023-04-29T03:29:09.071Z,100276.94
2023-04-29T03:33:10.820Z,100287.94
2023-04-29T03:37:12.894Z,100286.91
2023-04-29T03:41:19.903Z,100289.22
2023-04-29T03:45:22.422Z,100292.44
2023-04-29T03:49:24.163Z,100294.88
2023-04-29T03:53:26.240Z,100302.66
2023-04-29T03:57:28.582Z,100304.34
2023-04-29T04:01:31.438Z,100312.94
2023-04-29T04:05:33.084Z,100307.22
2023-04-29T04:09:41.213Z,100316.84
2023-04-29T04:13:44.519Z,100317.91
2023-04-29T04:17:46.725Z,100317.16
2023-04-29T04:21:48.580Z,100319.66
2023-04-29T04:25:50.333Z,100324.75
2023-04-29T04:30:10.938Z,100331.66
2023-04-29T04:34:12.655Z,100328.19
2023-04-29T04:38:15.194Z,100329.09
2023-04-29T04:42:18.390Z,100338.59
2023-04-29T04:46:24.141Z,100346.34
2023-04-29T04:50:34.012Z,100353.97
2023-04-29T04:54:35.879Z,100373.50
2023-04-29T04:58:48.271Z,100368.16
2023-04-29T05:02:49.932Z,100384.53
2023-04-29T05:06:51.545Z,100384.63
2023-04-29T05:10:57.704Z,100398.28
2023-04-29T05:14:59.513Z,100400.66
2023-04-29T05:19:02.797Z,100403.09
2023-04-29T05:23:08.793Z,100412.69
2023-04-29T05:27:14.706Z,100416.44
2023-04-29T05:31:17.091Z,100414.25
2023-04-29T05:35:18.852Z,100413.78
2023-04-29T05:39:20.948Z,100417.41
2023-04-29T05:43:33.179Z,100417.47
2023-04-29T05:47:35.332Z,100421.28
2023-04-29T05:51:37.157Z,100420.47
2023-04-29T05:55:39.809Z,100436.00
2023-04-29T05:59:41.347Z,100430.28
2023-04-29T06:03:44.057Z,100427.94
2023-04-29T06:08:15.359Z,100435.69
2023-04-29T06:12:24.469Z,100447.63
2023-04-29T06:16:26.150Z,100458.97
2023-04-29T06:20:29.126Z,100457.31
2023-04-29T06:24:30.876Z,100460.25
2023-04-29T06:28:32.542Z,100456.19
2023-04-29T06:32:34.452Z,100456.47
2023-04-29T06:36:36.040Z,100466.81
2023-04-29T06:40:37.630Z,100470.38
2023-04-29T06:44:57.385Z,100479.22
2023-04-29T06:49:01.879Z,100479.00
2023-04-29T06:53:06.444Z,100472.09
2023-04-29T06:57:08.153Z,100481.34
2023-04-29T07:01:10.219Z,100484.78
2023-04-29T07:05:12.002Z,100490.25
2023-04-29T07:09:14.374Z,100496.00
2023-04-29T07:13:15.956Z,100503.31
2023-04-29T07:17:17.505Z,100498.47
2023-04-29T07:21:19.108Z,100508.03
2023-04-29T07:25:20.815Z,100520.66
2023-04-29T07:29:22.397Z,100530.56
2023-04-29T07:33:24.345Z,100545.25
2023-04-29T07:37:26.773Z,100551.59
2023-04-29T07:41:28.681Z,100555.84
2023-04-29T07:45:30.365Z,100558.22
2023-04-29T07:49:32.375Z,100569.34
2023-04-29T07:53:33.926Z,100567.44
2023-04-29T07:57:36.023Z,100571.47
2023-04-29T08:01:37.672Z,100586.13
2023-04-29T08:05:39.427Z,100589.78
2023-04-29T08:09:41.455Z,100591.09
2023-04-29T08:13:46.365Z,100594.97
2023-04-29T08:17:48.008Z,100596.00
2023-04-29T08:21:50.020Z,100600.09
2023-04-29T08:25:52.261Z,100602.66
2023-04-29T08:29:53.780Z,100608.75
2023-04-29T08:33:56.012Z,100598.41
2023-04-29T08:37:57.636Z,100600.06
2023-04-29T08:42:00.175Z,100605.50
2023-04-29T08:46:03.353Z,100603.03
2023-04-29T08:50:05.950Z,100611.94
2023-04-29T08:54:08.008Z,100617.97
2023-04-29T08:58:10.769Z,100626.22
2023-04-29T09:02:17.970Z,100622.28
2023-04-29T09:06:21.297Z,100633.16
2023-04-29T09:10:23.790Z,100639.25
2023-04-29T09:14:25.678Z,100630.00
2023-04-29T09:18:50.392Z,100647.94
2023-04-29T09:22:54.318Z,100648.59
2023-04-29T09:26:56.637Z,100646.25
2023-04-29T09:30:58.223Z,100646.53
2023-04-29T09:35:26.326Z,100642.91
2023-04-29T09:39:38.775Z,100640.22
2023-04-29T09:43:40.418Z,100645.28
2023-04-29T09:47:42.402Z,100646.91
2023-04-29T09:52:04.530Z,100646.34
2023-04-29T09:56:07.237Z,100652.50
2023-04-29T10:00:09.271Z,100654.34
2023-04-29T10:04:15.839Z,100641.19
2023-04-29T10:08:17.997Z,100629.78
2023-04-29T10:12:20.864Z,100628.72
2023-04-29T10:16:30.536Z,100642.66
2023-04-29T10:20:33.863Z,100637.47
2023-04-29T10:24:39.820Z,100640.63
2023-04-29T10:28:43.558Z,100643.25
2023-04-29T10:32:50.984Z,100638.88
2023-04-29T10:36:54.182Z,100645.03
2023-04-29T10:40:59.949Z,100638.22
2023-04-29T10:45:27.336Z,100636.59
2023-04-29T10:49:34.379Z,100631.53
2023-04-29T10:53:36.394Z,100629.09
2023-04-29T10:57:37.962Z,100636.13
2023-04-29T11:01:53.671Z,100639.31
2023-04-29T11:06:08.632Z,100628.63
2023-04-29T11:10:10.349Z,100638.66
2023-04-29T11:14:13.832Z,100631.69
2023-04-29T11:18:15.900Z,100627.47
2023-04-29T11:22:23.960Z,100620.13
2023-04-29T11:26:25.803Z,100620.47
2023-04-29T11:30:28.828Z,100623.44
2023-04-29T11:34:30.418Z,100622.63
2023-04-29T11:38:32.134Z,100620.16
2023-04-29T11:42:41.733Z,100622.88
2023-04-29T11:46:43.453Z,100622.91
2023-04-29T11:50:50.398Z,100629.75
2023-04-29T11:54:52.829Z,100629.75
2023-04-29T11:58:56.834Z,100645.19
2023-04-29T12:02:58.792Z,100645.06
2023-04-29T12:07:03.703Z,100648.44
2023-04-29T12:11:07.358Z,100642.16
2023-04-29T12:15:10.281Z,100643.75
2023-04-29T12:19:12.138Z,100647.31
2023-04-29T12:23:23.489Z,100656.22
2023-04-29T12:27:26.416Z,100661.41
2023-04-29T12:31:34.847Z,100645.19
2023-04-29T12:35:39.513Z,100655.38
2023-04-29T12:39:41.420Z,100659.75
2023-04-29T12:43:43.840Z,100654.72
2023-04-29T12:47:45.450Z,100661.53
2023-04-29T12:51:47.351Z,100665.94
2023-04-29T12:55:49.045Z,100666.72
2023-04-29T12:59:50.685Z,100664.09
2023-04-29T13:03:52.410Z,100663.97
2023-04-29T13:07:54.151Z,100663.69
2023-04-29T13:11:55.972Z,100673.09
2023-04-29T13:15:57.869Z,100669.53
2023-04-29T13:19:59.477Z,100670.31
2023-04-29T13:24:01.082Z,100678.94
2023-04-29T13:28:02.947Z,100676.28
2023-04-29T13:32:04.936Z,100676.22
2023-04-29T13:36:07.167Z,100673.50
2023-04-29T13:40:09.373Z,100678.66
2023-04-29T13:44:23.839Z,100689.81
2023-04-29T13:49:02.853Z,100686.38
2023-04-29T13:57:40.172Z,100681.13
2023-04-29T14:01:55.250Z,100686.41
2023-04-29T14:05:41.990Z,100689.78
2023-04-29T14:09:43.615Z,100696.50
2023-04-29T14:13:45.176Z,100697.28
2023-04-29T14:17:47.077Z,100704.91
2023-04-29T14:21:48.670Z,100691.25
2023-04-29T14:25:50.268Z,100700.09
2023-04-29T14:29:51.875Z,100698.19
2023-04-29T14:33:54.137Z,100710.91
2023-04-29T14:37:55.973Z,100712.56
2023-04-29T14:41:57.544Z,100714.19
2023-04-29T14:45:59.134Z,100717.47
2023-04-29T14:50:00.747Z,100722.81
2023-04-29T14:54:02.582Z,100717.66
2023-04-29T14:58:05.092Z,100725.38
2023-04-29T15:02:06.842Z,100727.44
2023-04-29T15:06:08.610Z,100734.28
2023-04-29T15:10:10.271Z,100733.88
2023-04-29T15:14:11.978Z,100728.56
2023-04-29T15:18:13.745Z,100725.28
2023-04-29T15:22:15.377Z,100712.75
2023-04-29T15:26:17.021Z,100709.13
2023-04-29T15:30:18.754Z,100704.53
2023-04-29T15:34:21.594Z,100714.09
2023-04-29T15:38:23.632Z,100714.81
2023-04-29T15:42:25.627Z,100712.09
2023-04-29T15:46:27.889Z,100714.31
2023-04-29T15:50:29.616Z,100725.69
2023-04-29T15:54:31.209Z,100727.88
2023-04-29T15:58:33.006Z,100732.69
2023-04-29T16:02:35.730Z,100730.75
2023-04-29T16:06:37.438Z,100732.97
2023-04-29T16:10:39.051Z,100730.16
2023-04-29T16:14:40.615Z,100734.41
2023-04-29T16:18:42.223Z,100736.69
2023-04-29T16:22:43.703Z,100745.16
2023-04-29T16:26:45.370Z,100747.38
2023-04-29T16:30:46.954Z,100750.66
2023-04-29T16:34:48.633Z,100749.75
2023-04-29T16:38:51.291Z,100748.88
2023-04-29T16:42:53.364Z,100747.16
2023-04-29T16:46:55.054Z,100751.28
2023-04-29T16:50:57.224Z,100748.66
2023-04-29T16:55:01.366Z,100749.50
2023-04-29T16:59:03.658Z,100751.31
2023-04-29T17:03:06.050Z,100750.31
2023-04-29T17:07:09.345Z,100754.41
2023-04-29T17:11:10.949Z,100756.88
2023-04-29T17:15:12.603Z,100754.84
2023-04-29T17:19:14.230Z,100756.53
2023-04-29T17:23:15.809Z,100762.59
2023-04-29T17:27:17.634Z,100757.44
2023-04-29T17:31:24.882Z,100763.66
2023-04-29T17:35:26.740Z,100766.31
2023-04-29T17:39:29.049Z,100766.19
2023-04-29T17:43:33.205Z,100759.91
2023-04-29T17:47:35.617Z,100769.00
2023-04-29T17:51:37.432Z,100780.16
2023-04-29T17:55:39.869Z,100781.69
2023-04-29T17:59:41.422Z,100780.50
2023-04-29T18:03:42.994Z,100786.34
2023-04-29T18:07:44.583Z,100789.53
2023-04-29T18:11:46.162Z,100796.19
2023-04-29T18:15:48.120Z,100802.19
2023-04-29T18:19:49.753Z,100799.31
2023-04-29T18:23:51.608Z,100793.13
2023-04-29T18:28:07.550Z,100799.81
2023-04-29T18:32:17.061Z,100804.59
2023-04-29T18:36:21.216Z,100803.66
2023-04-29T18:40:22.945Z,100797.34
2023-04-29T18:44:25.669Z,100807.56
2023-04-29T18:48:28.098Z,100813.47
2023-04-29T18:52:29.666Z,100814.97
2023-04-29T18:56:31.528Z,100815.66
2023-04-29T19:00:33.231Z,100824.28
2023-04-29T19:04:35.239Z,100827.78
2023-04-29T19:08:36.801Z,100822.41
2023-04-29T19:12:38.604Z,100831.06
2023-04-29T19:16:40.416Z,100837.88
2023-04-29T19:20:42.581Z,100841.38
2023-04-29T19:24:44.844Z,100845.81
2023-04-29T19:28:46.503Z,100853.63
2023-04-29T19:32:48.716Z,100854.63
2023-04-29T19:36:50.663Z,100860.00
2023-04-29T19:40:55.448Z,100859.94
2023-04-29T19:44:57.482Z,100861.44
2023-04-29T19:48:59.392Z,100857.91
2023-04-29T19:53:01.091Z,100864.00
2023-04-29T19:57:03.482Z,100870.97
2023-04-29T20:01:06.014Z,100871.03
2023-04-29T20:05:10.592Z,100869.16
2023-04-29T20:09:12.252Z,100873.97
2023-04-29T20:13:13.914Z,100883.16
2023-04-29T20:17:17.048Z,100874.59
2023-04-29T20:21:18.999Z,100879.81
2023-04-29T20:25:21.770Z,100878.78
2023-04-29T20:29:23.469Z,100868.41
2023-04-29T20:33:25.127Z,100864.03
2023-04-29T20:37:26.824Z,100875.97
2023-04-29T20:41:29.063Z,100875.13
2023-04-29T20:45:30.636Z,100888.88
2023-04-29T20:49:32.660Z,100887.09
2023-04-29T20:53:34.246Z,100883.72
2023-04-29T20:57:35.807Z,100886.38
2023-04-29T21:01:38.064Z,100889.81
2023-04-29T21:05:39.827Z,100895.97
2023-04-29T21:09:41.629Z,100905.50
2023-04-29T21:13:49.662Z,100912.44
2023-04-29T21:17:51.245Z,100911.28
2023-04-29T21:21:52.886Z,100912.84
2023-04-29T21:25:54.406Z,100906.88
2023-04-29T21:29:56.810Z,100911.13
2023-04-29T21:33:58.590Z,100916.50
2023-04-29T21:38:00.124Z,100913.38
2023-04-29T21:42:03.048Z,100904.88
2023-04-29T21:46:06.449Z,100902.19
2023-04-29T21:50:10.252Z,100907.16
2023-04-29T21:54:11.779Z,100915.72
2023-04-29T21:58:13.552Z,100917.44
2023-04-29T22:02:21.959Z,100925.88
2023-04-29T22:06:24.616Z,100912.94
2023-04-29T22:10:26.343Z,100927.44
2023-04-29T22:14:27.923Z,100934.25
2023-04-29T22:18:29.548Z,100934.91
2023-04-29T22:22:31.187Z,100944.28
2023-04-29T22:26:32.782Z,100937.41
2023-04-29T22:30:34.452Z,100934.03
2023-04-29T22:34:36.678Z,100927.97
2023-04-29T22:38:38.403Z,100933.63
2023-04-29T22:42:41.833Z,100939.63
2023-04-29T22:46:43.433Z,100941.34
2023-04-29T22:50:56.404Z,100940.25
2023-04-29T22:54:58.187Z,100940.22
2023-04-29T22:58:59.715Z,100935.63
2023-04-29T23:03:01.330Z,100928.75
2023-04-29T23:07:02.941Z,100927.38
2023-04-29T23:11:05.142Z,100935.25
2023-04-29T23:15:07.283Z,100935.34
2023-04-29T23:19:08.872Z,100945.66
2023-04-29T23:23:10.433Z,100950.03
2023-04-29T23:27:12.068Z,100951.56
2023-04-29T23:31:13.699Z,100951.50
2023-04-29T23:35:15.455Z,100953.28
2023-04-29T23:39:16.946Z,100950.69
2023-04-29T23:43:19.401Z,100950.44
2023-04-29T23:47:21.260Z,100950.97
2023-04-29T23:51:22.848Z,100947.22
2023-04-29T23:55:24.388Z,100954.31
2023-04-29T23:59:25.986Z,100946.59
